sensor_id;sensor_type;location;lat;lon;timestamp;temperature;humidity
24676;DHT22;12799;53.690;10.114;2022-08-19T00:01:51;20.30;99.90
24676;DHT22;12799;53.690;10.114;2022-08-19T00:03:53;20.30;99.90
24676;DHT22;12799;53.690;10.114;2022-08-19T00:05:55;20.30;99.90
24676;DHT22;12799;53.690;10.114;2022-08-19T00:07:57;20.20;99.90
24676;DHT22;12799;53.690;10.114;2022-08-19T00:09:59;20.30;99.90
24676;DHT22;12799;53.690;10.114;2022-08-19T00:12:03;20.30;99.90
24676;DHT22;12799;53.690;10.114;2022-08-19T00:14:07;20.30;99.90
24676;DHT22;12799;53.690;10.114;2022-08-19T00:16:10;20.20;99.90
24676;DHT22;12799;53.690;10.114;2022-08-19T00:18:12;20.20;99.90
24676;DHT22;12799;53.690;10.114;2022-08-19T00:20:15;20.20;99.90
24676;DHT22;12799;53.690;10.114;2022-08-19T00:22:18;20.20;99.90
24676;DHT22;12799;53.690;10.114;2022-08-19T00:24:20;20.30;99.90
24676;DHT22;12799;53.690;10.114;2022-08-19T00:26:22;20.20;99.90
24676;DHT22;12799;53.690;10.114;2022-08-19T00:28:25;20.20;99.90
24676;DHT22;12799;53.690;10.114;2022-08-19T00:30:28;20.20;99.90
24676;DHT22;12799;53.690;10.114;2022-08-19T00:32:30;20.20;99.90
24676;DHT22;12799;53.690;10.114;2022-08-19T00:34:32;20.20;99.90
24676;DHT22;12799;53.690;10.114;2022-08-19T00:36:34;20.20;99.90
24676;DHT22;12799;53.690;10.114;2022-08-19T00:38:38;20.20;99.90
24676;DHT22;12799;53.690;10.114;2022-08-19T00:40:44;20.20;99.90
24676;DHT22;12799;53.690;10.114;2022-08-19T00:42:47;20.30;99.90
24676;DHT22;12799;53.690;10.114;2022-08-19T00:44:50;20.30;99.90
24676;DHT22;12799;53.690;10.114;2022-08-19T00:46:54;20.30;99.90
24676;DHT22;12799;53.690;10.114;2022-08-19T00:48:57;20.30;99.90
24676;DHT22;12799;53.690;10.114;2022-08-19T00:51:00;20.30;99.90
24676;DHT22;12799;53.690;10.114;2022-08-19T00:53:03;20.30;99.90
24676;DHT22;12799;53.690;10.114;2022-08-19T00:55:07;20.20;99.90
24676;DHT22;12799;53.690;10.114;2022-08-19T00:57:12;20.20;99.90
24676;DHT22;12799;53.690;10.114;2022-08-19T00:59:18;20.20;99.90
24676;DHT22;12799;53.690;10.114;2022-08-19T01:01:22;20.20;99.90
24676;DHT22;12799;53.690;10.114;2022-08-19T01:03:24;20.20;99.90
24676;DHT22;12799;53.690;10.114;2022-08-19T01:05:28;20.20;99.90
24676;DHT22;12799;53.690;10.114;2022-08-19T01:07:30;20.20;99.90
24676;DHT22;12799;53.690;10.114;2022-08-19T01:09:32;20.20;99.90
24676;DHT22;12799;53.690;10.114;2022-08-19T01:11:38;20.10;99.90
24676;DHT22;12799;53.690;10.114;2022-08-19T01:13:40;20.10;99.90
24676;DHT22;12799;53.690;10.114;2022-08-19T01:15:45;20.10;99.90
24676;DHT22;12799;53.690;10.114;2022-08-19T01:17:49;20.10;99.90
24676;DHT22;12799;53.690;10.114;2022-08-19T01:19:52;20.10;99.90
24676;DHT22;12799;53.690;10.114;2022-08-19T01:21:59;20.10;99.90
24676;DHT22;12799;53.690;10.114;2022-08-19T01:24:04;20.10;99.90
24676;DHT22;12799;53.690;10.114;2022-08-19T01:26:06;20.10;99.90
24676;DHT22;12799;53.690;10.114;2022-08-19T01:28:12;20.10;99.90
24676;DHT22;12799;53.690;10.114;2022-08-19T01:30:21;20.00;99.90
24676;DHT22;12799;53.690;10.114;2022-08-19T01:32:23;20.00;99.90
24676;DHT22;12799;53.690;10.114;2022-08-19T01:34:25;19.90;99.90
24676;DHT22;12799;53.690;10.114;2022-08-19T01:36:30;19.90;99.90
24676;DHT22;12799;53.690;10.114;2022-08-19T01:38:37;19.90;99.90
24676;DHT22;12799;53.690;10.114;2022-08-19T01:40:41;19.90;99.90
24676;DHT22;12799;53.690;10.114;2022-08-19T01:42:43;19.90;99.90
24676;DHT22;12799;53.690;10.114;2022-08-19T01:44:45;19.90;99.90
24676;DHT22;12799;53.690;10.114;2022-08-19T01:46:48;19.90;99.90
24676;DHT22;12799;53.690;10.114;2022-08-19T01:48:50;19.90;99.90
24676;DHT22;12799;53.690;10.114;2022-08-19T01:50:52;19.80;99.90
24676;DHT22;12799;53.690;10.114;2022-08-19T01:52:54;19.90;99.90
24676;DHT22;12799;53.690;10.114;2022-08-19T01:54:56;19.90;99.90
24676;DHT22;12799;53.690;10.114;2022-08-19T01:57:03;19.90;99.90
24676;DHT22;12799;53.690;10.114;2022-08-19T01:59:10;19.90;99.90
24676;DHT22;12799;53.690;10.114;2022-08-19T02:01:13;19.90;99.90
24676;DHT22;12799;53.690;10.114;2022-08-19T02:03:15;19.90;99.90
24676;DHT22;12799;53.690;10.114;2022-08-19T02:05:18;19.90;99.90
24676;DHT22;12799;53.690;10.114;2022-08-19T02:07:22;19.90;99.90
24676;DHT22;12799;53.690;10.114;2022-08-19T02:09:24;19.90;99.90
24676;DHT22;12799;53.690;10.114;2022-08-19T02:11:29;19.90;99.90
24676;DHT22;12799;53.690;10.114;2022-08-19T02:13:33;19.90;99.90
24676;DHT22;12799;53.690;10.114;2022-08-19T02:15:36;19.90;99.90
24676;DHT22;12799;53.690;10.114;2022-08-19T02:17:38;19.90;99.90
24676;DHT22;12799;53.690;10.114;2022-08-19T02:19:40;19.90;99.90
24676;DHT22;12799;53.690;10.114;2022-08-19T02:21:42;19.90;99.90
24676;DHT22;12799;53.690;10.114;2022-08-19T02:23:45;19.90;99.90
24676;DHT22;12799;53.690;10.114;2022-08-19T02:25:48;19.90;99.90
24676;DHT22;12799;53.690;10.114;2022-08-19T02:27:50;20.00;99.90
24676;DHT22;12799;53.690;10.114;2022-08-19T02:29:54;19.90;99.90
24676;DHT22;12799;53.690;10.114;2022-08-19T02:31:56;19.90;99.90
24676;DHT22;12799;53.690;10.114;2022-08-19T02:33:58;19.90;99.90
24676;DHT22;12799;53.690;10.114;2022-08-19T02:36:03;19.80;99.90
24676;DHT22;12799;53.690;10.114;2022-08-19T02:38:05;19.80;99.90
24676;DHT22;12799;53.690;10.114;2022-08-19T02:40:25;19.80;99.90
24676;DHT22;12799;53.690;10.114;2022-08-19T02:42:27;19.70;99.90
24676;DHT22;12799;53.690;10.114;2022-08-19T02:44:29;19.70;99.90
24676;DHT22;12799;53.690;10.114;2022-08-19T02:46:33;19.80;99.90
24676;DHT22;12799;53.690;10.114;2022-08-19T02:48:35;19.80;99.90
24676;DHT22;12799;53.690;10.114;2022-08-19T02:50:38;19.80;99.90
24676;DHT22;12799;53.690;10.114;2022-08-19T02:52:40;19.80;99.90
24676;DHT22;12799;53.690;10.114;2022-08-19T02:54:42;19.80;99.90
24676;DHT22;12799;53.690;10.114;2022-08-19T02:56:45;19.80;99.90
24676;DHT22;12799;53.690;10.114;2022-08-19T02:58:47;19.80;99.90
24676;DHT22;12799;53.690;10.114;2022-08-19T03:00:52;19.90;99.90
24676;DHT22;12799;53.690;10.114;2022-08-19T03:02:55;19.90;99.90
24676;DHT22;12799;53.690;10.114;2022-08-19T03:04:57;19.90;99.90
24676;DHT22;12799;53.690;10.114;2022-08-19T03:06:59;19.90;99.90
24676;DHT22;12799;53.690;10.114;2022-08-19T03:09:01;19.90;99.90
24676;DHT22;12799;53.690;10.114;2022-08-19T03:11:04;19.90;99.90
24676;DHT22;12799;53.690;10.114;2022-08-19T03:13:06;19.90;99.90
24676;DHT22;12799;53.690;10.114;2022-08-19T03:15:09;19.80;99.90
24676;DHT22;12799;53.690;10.114;2022-08-19T03:17:11;19.70;99.90
24676;DHT22;12799;53.690;10.114;2022-08-19T03:19:16;19.70;99.90
24676;DHT22;12799;53.690;10.114;2022-08-19T03:21:22;19.70;99.90
24676;DHT22;12799;53.690;10.114;2022-08-19T03:23:25;19.70;99.90
24676;DHT22;12799;53.690;10.114;2022-08-19T03:25:27;19.70;99.90
24676;DHT22;12799;53.690;10.114;2022-08-19T03:27:29;19.70;99.90
24676;DHT22;12799;53.690;10.114;2022-08-19T03:29:31;19.60;99.90
24676;DHT22;12799;53.690;10.114;2022-08-19T03:31:34;19.70;99.90
24676;DHT22;12799;53.690;10.114;2022-08-19T03:33:36;19.70;99.90
24676;DHT22;12799;53.690;10.114;2022-08-19T03:35:39;19.70;99.90
24676;DHT22;12799;53.690;10.114;2022-08-19T03:37:41;19.60;99.90
24676;DHT22;12799;53.690;10.114;2022-08-19T03:39:43;19.60;99.90
24676;DHT22;12799;53.690;10.114;2022-08-19T03:41:46;19.60;99.90
24676;DHT22;12799;53.690;10.114;2022-08-19T03:43:49;19.60;99.90
24676;DHT22;12799;53.690;10.114;2022-08-19T03:46:00;19.60;99.90
24676;DHT22;12799;53.690;10.114;2022-08-19T03:48:04;19.50;99.90
24676;DHT22;12799;53.690;10.114;2022-08-19T03:50:07;19.60;99.90
24676;DHT22;12799;53.690;10.114;2022-08-19T03:52:11;19.60;99.90
24676;DHT22;12799;53.690;10.114;2022-08-19T03:54:14;19.60;99.90
24676;DHT22;12799;53.690;10.114;2022-08-19T03:56:18;19.50;99.90
24676;DHT22;12799;53.690;10.114;2022-08-19T03:58:20;19.50;99.90
24676;DHT22;12799;53.690;10.114;2022-08-19T04:00:22;19.60;99.90
24676;DHT22;12799;53.690;10.114;2022-08-19T04:02:24;19.60;99.90
24676;DHT22;12799;53.690;10.114;2022-08-19T04:04:27;19.60;99.90
24676;DHT22;12799;53.690;10.114;2022-08-19T04:06:30;19.60;99.90
24676;DHT22;12799;53.690;10.114;2022-08-19T04:08:34;19.60;99.90
24676;DHT22;12799;53.690;10.114;2022-08-19T04:10:36;19.60;99.90
24676;DHT22;12799;53.690;10.114;2022-08-19T04:12:38;19.60;99.90
24676;DHT22;12799;53.690;10.114;2022-08-19T04:14:41;19.70;99.90
24676;DHT22;12799;53.690;10.114;2022-08-19T04:16:43;19.70;99.90
24676;DHT22;12799;53.690;10.114;2022-08-19T04:18:47;19.70;99.90
24676;DHT22;12799;53.690;10.114;2022-08-19T04:20:49;19.80;99.90
24676;DHT22;12799;53.690;10.114;2022-08-19T04:22:51;19.70;99.90
24676;DHT22;12799;53.690;10.114;2022-08-19T04:24:54;19.80;99.90
24676;DHT22;12799;53.690;10.114;2022-08-19T04:26:58;19.70;99.90
24676;DHT22;12799;53.690;10.114;2022-08-19T04:29:00;19.60;99.90
24676;DHT22;12799;53.690;10.114;2022-08-19T04:31:03;19.70;99.90
24676;DHT22;12799;53.690;10.114;2022-08-19T04:33:05;19.70;99.90
24676;DHT22;12799;53.690;10.114;2022-08-19T04:35:07;19.70;99.90
24676;DHT22;12799;53.690;10.114;2022-08-19T04:37:09;19.70;99.90
24676;DHT22;12799;53.690;10.114;2022-08-19T04:39:16;19.70;99.90
24676;DHT22;12799;53.690;10.114;2022-08-19T04:41:20;19.80;99.90
24676;DHT22;12799;53.690;10.114;2022-08-19T04:43:39;19.70;99.90
24676;DHT22;12799;53.690;10.114;2022-08-19T04:45:42;19.70;99.90
24676;DHT22;12799;53.690;10.114;2022-08-19T04:47:44;19.70;99.90
24676;DHT22;12799;53.690;10.114;2022-08-19T04:49:46;19.70;99.90
24676;DHT22;12799;53.690;10.114;2022-08-19T04:51:51;19.60;99.90
24676;DHT22;12799;53.690;10.114;2022-08-19T04:53:54;19.70;99.90
24676;DHT22;12799;53.690;10.114;2022-08-19T04:55:58;19.60;99.90
24676;DHT22;12799;53.690;10.114;2022-08-19T04:58:01;19.60;99.90
24676;DHT22;12799;53.690;10.114;2022-08-19T05:00:05;19.60;99.90
24676;DHT22;12799;53.690;10.114;2022-08-19T05:02:08;19.50;99.90
24676;DHT22;12799;53.690;10.114;2022-08-19T05:04:11;19.50;99.90
24676;DHT22;12799;53.690;10.114;2022-08-19T05:06:15;19.60;99.90
24676;DHT22;12799;53.690;10.114;2022-08-19T05:08:19;19.50;99.90
24676;DHT22;12799;53.690;10.114;2022-08-19T05:10:26;19.60;99.90
24676;DHT22;12799;53.690;10.114;2022-08-19T05:12:28;19.70;99.90
24676;DHT22;12799;53.690;10.114;2022-08-19T05:14:31;19.70;99.90
24676;DHT22;12799;53.690;10.114;2022-08-19T05:16:34;19.70;99.90
24676;DHT22;12799;53.690;10.114;2022-08-19T05:18:36;19.70;99.90
24676;DHT22;12799;53.690;10.114;2022-08-19T05:20:55;19.80;99.90
24676;DHT22;12799;53.690;10.114;2022-08-19T05:23:15;19.80;99.90
24676;DHT22;12799;53.690;10.114;2022-08-19T05:25:19;19.70;99.90
24676;DHT22;12799;53.690;10.114;2022-08-19T05:27:22;19.80;99.90
24676;DHT22;12799;53.690;10.114;2022-08-19T05:29:25;19.80;99.90
24676;DHT22;12799;53.690;10.114;2022-08-19T05:31:29;19.70;99.90
24676;DHT22;12799;53.690;10.114;2022-08-19T05:33:31;19.80;99.90
24676;DHT22;12799;53.690;10.114;2022-08-19T05:35:33;19.80;99.90
24676;DHT22;12799;53.690;10.114;2022-08-19T05:37:35;19.80;99.90
24676;DHT22;12799;53.690;10.114;2022-08-19T05:39:38;19.80;99.90
24676;DHT22;12799;53.690;10.114;2022-08-19T05:41:42;19.80;99.90
24676;DHT22;12799;53.690;10.114;2022-08-19T05:43:44;19.70;99.90
24676;DHT22;12799;53.690;10.114;2022-08-19T05:45:45;19.80;99.90
24676;DHT22;12799;53.690;10.114;2022-08-19T05:47:49;19.80;99.90
24676;DHT22;12799;53.690;10.114;2022-08-19T05:49:51;19.80;99.90
24676;DHT22;12799;53.690;10.114;2022-08-19T05:51:53;19.90;99.90
24676;DHT22;12799;53.690;10.114;2022-08-19T05:53:56;19.80;99.90
24676;DHT22;12799;53.690;10.114;2022-08-19T05:56:03;19.80;99.90
24676;DHT22;12799;53.690;10.114;2022-08-19T05:58:05;19.80;99.90
24676;DHT22;12799;53.690;10.114;2022-08-19T06:00:09;19.80;99.90
24676;DHT22;12799;53.690;10.114;2022-08-19T06:02:12;19.70;99.90
24676;DHT22;12799;53.690;10.114;2022-08-19T06:04:16;19.80;99.90
24676;DHT22;12799;53.690;10.114;2022-08-19T06:06:20;19.70;99.90
24676;DHT22;12799;53.690;10.114;2022-08-19T06:08:22;19.80;99.90
24676;DHT22;12799;53.690;10.114;2022-08-19T06:10:24;19.70;99.90
24676;DHT22;12799;53.690;10.114;2022-08-19T06:12:27;19.80;99.90
24676;DHT22;12799;53.690;10.114;2022-08-19T06:14:35;19.70;99.90
24676;DHT22;12799;53.690;10.114;2022-08-19T06:16:38;19.70;99.90
24676;DHT22;12799;53.690;10.114;2022-08-19T06:18:40;19.70;99.90
24676;DHT22;12799;53.690;10.114;2022-08-19T06:20:44;19.60;99.90
24676;DHT22;12799;53.690;10.114;2022-08-19T06:22:48;19.60;99.90
24676;DHT22;12799;53.690;10.114;2022-08-19T06:24:52;19.70;99.90
24676;DHT22;12799;53.690;10.114;2022-08-19T06:26:56;19.70;99.90
24676;DHT22;12799;53.690;10.114;2022-08-19T06:28:58;19.70;99.90
24676;DHT22;12799;53.690;10.114;2022-08-19T06:31:06;19.80;99.90
24676;DHT22;12799;53.690;10.114;2022-08-19T06:33:08;19.80;99.90
24676;DHT22;12799;53.690;10.114;2022-08-19T06:35:10;19.90;99.90
24676;DHT22;12799;53.690;10.114;2022-08-19T06:37:15;19.80;99.90
24676;DHT22;12799;53.690;10.114;2022-08-19T06:39:19;19.80;99.90
24676;DHT22;12799;53.690;10.114;2022-08-19T06:41:21;19.90;99.90
24676;DHT22;12799;53.690;10.114;2022-08-19T06:43:23;19.90;99.90
24676;DHT22;12799;53.690;10.114;2022-08-19T06:45:25;19.80;99.90
24676;DHT22;12799;53.690;10.114;2022-08-19T06:47:28;19.80;99.90
24676;DHT22;12799;53.690;10.114;2022-08-19T06:49:32;19.80;99.90
24676;DHT22;12799;53.690;10.114;2022-08-19T06:51:34;19.80;99.90
24676;DHT22;12799;53.690;10.114;2022-08-19T06:53:37;19.80;99.90
24676;DHT22;12799;53.690;10.114;2022-08-19T06:55:40;19.90;99.90
24676;DHT22;12799;53.690;10.114;2022-08-19T06:57:42;19.90;99.90
24676;DHT22;12799;53.690;10.114;2022-08-19T06:59:46;19.90;99.90
24676;DHT22;12799;53.690;10.114;2022-08-19T07:01:50;20.00;99.90
24676;DHT22;12799;53.690;10.114;2022-08-19T07:03:52;20.10;99.90
24676;DHT22;12799;53.690;10.114;2022-08-19T07:05:54;20.00;99.90
24676;DHT22;12799;53.690;10.114;2022-08-19T07:07:56;20.00;99.90
24676;DHT22;12799;53.690;10.114;2022-08-19T07:10:00;20.00;99.90
24676;DHT22;12799;53.690;10.114;2022-08-19T07:12:03;20.00;99.90
24676;DHT22;12799;53.690;10.114;2022-08-19T07:14:07;20.00;99.90
24676;DHT22;12799;53.690;10.114;2022-08-19T07:16:13;20.00;99.90
24676;DHT22;12799;53.690;10.114;2022-08-19T07:18:16;20.00;99.90
24676;DHT22;12799;53.690;10.114;2022-08-19T07:20:18;20.00;99.90
24676;DHT22;12799;53.690;10.114;2022-08-19T07:22:21;20.00;99.90
24676;DHT22;12799;53.690;10.114;2022-08-19T07:24:25;20.10;99.90
24676;DHT22;12799;53.690;10.114;2022-08-19T07:26:32;20.00;99.90
24676;DHT22;12799;53.690;10.114;2022-08-19T07:28:34;20.00;99.90
24676;DHT22;12799;53.690;10.114;2022-08-19T07:30:39;20.00;99.90
24676;DHT22;12799;53.690;10.114;2022-08-19T07:32:41;20.00;99.90
24676;DHT22;12799;53.690;10.114;2022-08-19T07:34:58;20.00;99.90
24676;DHT22;12799;53.690;10.114;2022-08-19T07:37:23;20.00;99.90
24676;DHT22;12799;53.690;10.114;2022-08-19T07:39:30;20.00;99.90
24676;DHT22;12799;53.690;10.114;2022-08-19T07:41:35;20.00;99.90
24676;DHT22;12799;53.690;10.114;2022-08-19T07:43:38;20.00;99.90
24676;DHT22;12799;53.690;10.114;2022-08-19T07:45:40;20.00;99.90
24676;DHT22;12799;53.690;10.114;2022-08-19T07:47:42;20.00;99.90
24676;DHT22;12799;53.690;10.114;2022-08-19T07:49:44;19.90;99.90
24676;DHT22;12799;53.690;10.114;2022-08-19T07:54:53;20.00;99.90
24676;DHT22;12799;53.690;10.114;2022-08-19T08:04:12;20.20;99.90
24676;DHT22;12799;53.690;10.114;2022-08-19T08:06:32;20.20;99.90
24676;DHT22;12799;53.690;10.114;2022-08-19T08:08:51;20.30;99.90
24676;DHT22;12799;53.690;10.114;2022-08-19T08:11:16;20.30;99.90
24676;DHT22;12799;53.690;10.114;2022-08-19T08:13:20;20.40;99.90
24676;DHT22;12799;53.690;10.114;2022-08-19T08:15:22;20.40;99.90
24676;DHT22;12799;53.690;10.114;2022-08-19T08:17:26;20.40;99.90
24676;DHT22;12799;53.690;10.114;2022-08-19T08:19:31;20.40;99.90
24676;DHT22;12799;53.690;10.114;2022-08-19T08:21:33;20.40;99.90
24676;DHT22;12799;53.690;10.114;2022-08-19T08:23:36;20.50;99.90
24676;DHT22;12799;53.690;10.114;2022-08-19T08:25:37;20.50;99.90
24676;DHT22;12799;53.690;10.114;2022-08-19T08:27:42;20.40;99.90
24676;DHT22;12799;53.690;10.114;2022-08-19T08:29:44;20.50;99.90
24676;DHT22;12799;53.690;10.114;2022-08-19T08:31:49;20.50;99.90
24676;DHT22;12799;53.690;10.114;2022-08-19T08:33:51;20.60;99.90
24676;DHT22;12799;53.690;10.114;2022-08-19T08:35:54;20.60;99.90
24676;DHT22;12799;53.690;10.114;2022-08-19T08:37:56;20.60;99.90
24676;DHT22;12799;53.690;10.114;2022-08-19T08:40:01;20.60;99.90
24676;DHT22;12799;53.690;10.114;2022-08-19T08:42:08;20.60;99.90
24676;DHT22;12799;53.690;10.114;2022-08-19T08:44:15;20.60;99.90
24676;DHT22;12799;53.690;10.114;2022-08-19T08:46:24;20.70;99.90
24676;DHT22;12799;53.690;10.114;2022-08-19T10:41:20;21.60;99.90
24676;DHT22;12799;53.690;10.114;2022-08-19T10:43:23;21.60;99.90
24676;DHT22;12799;53.690;10.114;2022-08-19T10:45:26;21.70;99.90
24676;DHT22;12799;53.690;10.114;2022-08-19T10:47:28;21.70;99.90
24676;DHT22;12799;53.690;10.114;2022-08-19T10:50:13;21.70;99.90
24676;DHT22;12799;53.690;10.114;2022-08-19T11:36:43;21.90;99.90
24676;DHT22;12799;53.690;10.114;2022-08-19T11:39:13;21.90;99.90
24676;DHT22;12799;53.690;10.114;2022-08-19T11:44:34;22.00;99.90
24676;DHT22;12799;53.690;10.114;2022-08-19T11:46:52;22.00;99.90
24676;DHT22;12799;53.690;10.114;2022-08-19T12:17:27;22.30;99.90
24676;DHT22;12799;53.690;10.114;2022-08-19T12:19:54;22.30;99.90
24676;DHT22;12799;53.690;10.114;2022-08-19T12:25:48;22.40;99.90
24676;DHT22;12799;53.690;10.114;2022-08-19T12:28:02;22.50;99.90
24676;DHT22;12799;53.690;10.114;2022-08-19T12:30:32;22.60;99.90
24676;DHT22;12799;53.690;10.114;2022-08-19T12:32:51;22.60;99.90
24676;DHT22;12799;53.690;10.114;2022-08-19T12:35:00;22.60;99.90
24676;DHT22;12799;53.690;10.114;2022-08-19T12:37:30;22.60;99.90
24676;DHT22;12799;53.690;10.114;2022-08-19T12:40:16;22.60;99.90
24676;DHT22;12799;53.690;10.114;2022-08-19T12:43:14;22.60;99.90
24676;DHT22;12799;53.690;10.114;2022-08-19T12:48:31;22.70;99.90
24676;DHT22;12799;53.690;10.114;2022-08-19T12:50:44;22.70;99.90
24676;DHT22;12799;53.690;10.114;2022-08-19T12:52:58;22.70;99.90
24676;DHT22;12799;53.690;10.114;2022-08-19T12:55:32;22.90;99.90
24676;DHT22;12799;53.690;10.114;2022-08-19T12:57:38;22.90;99.90
24676;DHT22;12799;53.690;10.114;2022-08-19T12:59:43;22.90;99.90
24676;DHT22;12799;53.690;10.114;2022-08-19T13:01:52;23.00;99.90
24676;DHT22;12799;53.690;10.114;2022-08-19T13:10:20;22.60;99.90
24676;DHT22;12799;53.690;10.114;2022-08-19T13:21:08;23.10;99.90
24676;DHT22;12799;53.690;10.114;2022-08-19T13:32:26;23.20;99.90
24676;DHT22;12799;53.690;10.114;2022-08-19T13:34:49;23.40;99.90
24676;DHT22;12799;53.690;10.114;2022-08-19T13:36:52;23.50;99.90
24676;DHT22;12799;53.690;10.114;2022-08-19T13:38:54;23.60;99.90
24676;DHT22;12799;53.690;10.114;2022-08-19T13:41:04;23.70;99.90
24676;DHT22;12799;53.690;10.114;2022-08-19T13:43:07;23.80;99.90
24676;DHT22;12799;53.690;10.114;2022-08-19T13:45:11;23.80;99.90
24676;DHT22;12799;53.690;10.114;2022-08-19T13:47:14;23.80;99.90
24676;DHT22;12799;53.690;10.114;2022-08-19T14:15:43;23.90;99.90
24676;DHT22;12799;53.690;10.114;2022-08-19T14:17:47;24.00;99.90
24676;DHT22;12799;53.690;10.114;2022-08-19T14:20:12;24.00;99.90
24676;DHT22;12799;53.690;10.114;2022-08-19T14:22:38;23.90;99.90
24676;DHT22;12799;53.690;10.114;2022-08-19T14:24:43;24.00;99.90
24676;DHT22;12799;53.690;10.114;2022-08-19T14:55:05;23.50;99.90
24676;DHT22;12799;53.690;10.114;2022-08-19T14:57:11;23.60;99.90
24676;DHT22;12799;53.690;10.114;2022-08-19T14:59:22;23.60;99.90
24676;DHT22;12799;53.690;10.114;2022-08-19T15:01:26;23.60;99.90
24676;DHT22;12799;53.690;10.114;2022-08-19T15:03:29;23.60;99.90
24676;DHT22;12799;53.690;10.114;2022-08-19T15:05:32;23.60;99.90
24676;DHT22;12799;53.690;10.114;2022-08-19T15:07:34;23.70;99.90
24676;DHT22;12799;53.690;10.114;2022-08-19T15:09:36;23.70;99.90
24676;DHT22;12799;53.690;10.114;2022-08-19T15:11:40;23.80;99.90
24676;DHT22;12799;53.690;10.114;2022-08-19T15:13:44;23.80;99.90
24676;DHT22;12799;53.690;10.114;2022-08-19T15:24:28;23.90;99.90
24676;DHT22;12799;53.690;10.114;2022-08-19T15:26:30;23.90;99.90
24676;DHT22;12799;53.690;10.114;2022-08-19T15:28:51;23.90;99.90
24676;DHT22;12799;53.690;10.114;2022-08-19T15:31:00;23.90;99.90
24676;DHT22;12799;53.690;10.114;2022-08-19T15:33:29;23.90;99.90
24676;DHT22;12799;53.690;10.114;2022-08-19T15:36:19;23.80;99.90
24676;DHT22;12799;53.690;10.114;2022-08-19T17:10:32;23.40;99.90
24676;DHT22;12799;53.690;10.114;2022-08-19T17:12:34;23.40;99.90
24676;DHT22;12799;53.690;10.114;2022-08-19T17:14:37;23.40;99.90
24676;DHT22;12799;53.690;10.114;2022-08-19T17:16:39;23.40;99.90
24676;DHT22;12799;53.690;10.114;2022-08-19T17:18:42;23.30;99.90
24676;DHT22;12799;53.690;10.114;2022-08-19T17:20:44;23.30;99.90
24676;DHT22;12799;53.690;10.114;2022-08-19T17:22:47;23.40;99.90
24676;DHT22;12799;53.690;10.114;2022-08-19T17:24:50;23.40;99.90
24676;DHT22;12799;53.690;10.114;2022-08-19T17:26:53;23.30;99.90
24676;DHT22;12799;53.690;10.114;2022-08-19T17:28:56;23.30;99.90
24676;DHT22;12799;53.690;10.114;2022-08-19T17:30:59;23.20;99.90
24676;DHT22;12799;53.690;10.114;2022-08-19T17:33:01;23.30;99.90
24676;DHT22;12799;53.690;10.114;2022-08-19T17:35:04;23.20;99.90
24676;DHT22;12799;53.690;10.114;2022-08-19T17:37:07;23.10;99.90
24676;DHT22;12799;53.690;10.114;2022-08-19T17:39:09;23.10;99.90
24676;DHT22;12799;53.690;10.114;2022-08-19T17:41:11;23.10;99.90
24676;DHT22;12799;53.690;10.114;2022-08-19T17:43:18;23.00;99.90
24676;DHT22;12799;53.690;10.114;2022-08-19T17:45:21;22.80;99.90
24676;DHT22;12799;53.690;10.114;2022-08-19T17:47:24;22.80;99.90
24676;DHT22;12799;53.690;10.114;2022-08-19T17:49:26;22.70;99.90
24676;DHT22;12799;53.690;10.114;2022-08-19T17:51:40;22.80;99.90
24676;DHT22;12799;53.690;10.114;2022-08-19T17:53:42;22.80;99.90
24676;DHT22;12799;53.690;10.114;2022-08-19T17:55:45;22.80;99.90
24676;DHT22;12799;53.690;10.114;2022-08-19T17:57:47;22.80;99.90
24676;DHT22;12799;53.690;10.114;2022-08-19T17:59:50;22.80;99.90
24676;DHT22;12799;53.690;10.114;2022-08-19T18:01:53;22.80;99.90
24676;DHT22;12799;53.690;10.114;2022-08-19T18:03:55;22.70;99.90
24676;DHT22;12799;53.690;10.114;2022-08-19T18:05:57;22.70;99.90
24676;DHT22;12799;53.690;10.114;2022-08-19T18:08:00;22.70;99.90
24676;DHT22;12799;53.690;10.114;2022-08-19T18:10:02;22.70;99.90
24676;DHT22;12799;53.690;10.114;2022-08-19T18:12:06;22.70;99.90
24676;DHT22;12799;53.690;10.114;2022-08-19T18:14:08;22.60;99.90
24676;DHT22;12799;53.690;10.114;2022-08-19T18:16:13;22.60;99.90
24676;DHT22;12799;53.690;10.114;2022-08-19T18:18:17;22.60;99.90
24676;DHT22;12799;53.690;10.114;2022-08-19T18:20:21;22.50;99.90
24676;DHT22;12799;53.690;10.114;2022-08-19T18:22:26;22.50;99.90
24676;DHT22;12799;53.690;10.114;2022-08-19T18:24:28;22.40;99.90
24676;DHT22;12799;53.690;10.114;2022-08-19T18:26:30;22.50;99.90
24676;DHT22;12799;53.690;10.114;2022-08-19T18:28:33;22.40;99.90
24676;DHT22;12799;53.690;10.114;2022-08-19T18:30:35;22.40;99.90
24676;DHT22;12799;53.690;10.114;2022-08-19T18:32:39;22.40;99.90
24676;DHT22;12799;53.690;10.114;2022-08-19T18:34:43;22.40;99.90
24676;DHT22;12799;53.690;10.114;2022-08-19T18:36:46;22.50;99.90
24676;DHT22;12799;53.690;10.114;2022-08-19T18:38:51;22.30;99.90
24676;DHT22;12799;53.690;10.114;2022-08-19T18:41:11;22.30;99.90
24676;DHT22;12799;53.690;10.114;2022-08-19T18:43:30;22.40;99.90
24676;DHT22;12799;53.690;10.114;2022-08-19T18:45:58;22.20;99.90
24676;DHT22;12799;53.690;10.114;2022-08-19T18:48:19;22.30;99.90
24676;DHT22;12799;53.690;10.114;2022-08-19T18:50:39;22.10;99.90
24676;DHT22;12799;53.690;10.114;2022-08-19T18:52:42;22.10;99.90
24676;DHT22;12799;53.690;10.114;2022-08-19T18:54:44;22.00;99.90
24676;DHT22;12799;53.690;10.114;2022-08-19T18:56:48;21.90;99.90
24676;DHT22;12799;53.690;10.114;2022-08-19T18:58:55;21.90;99.90
24676;DHT22;12799;53.690;10.114;2022-08-19T19:00:57;21.90;99.90
24676;DHT22;12799;53.690;10.114;2022-08-19T22:33:53;18.40;99.90
